LCLK/LCA METAR and TAF weather

Enter ICAO airport designator
Station Type Date Time Source
LCLK METAR 2022/12/04 05:30 UTC NOAA

LCLK 040530Z 29006KT 9999 FEW025 14/11 Q1020 NOSIG


Station Type Date Time Source
LCLK Decoded METAR 2022/12/04 05:30 UTC NOAA

Larnaca Airport, Cyprus (LCLK) 34-53N 033-38E 2M
Dec 04, 2022 - 12:30 AM EST / 2022.12.04 0530 UTC
Wind: from the WNW (290 degrees) at 7 MPH (6 KT):0
Visibility: greater than 7 mile(s):0
Sky conditions: mostly clear
Temperature: 57 F (14 C)
Dew Point: 51 F (11 C)
Relative Humidity: 82%
Pressure (altimeter): 30.12 in. Hg (1020 hPa)
ob: LCLK 040530Z 29006KT 9999 FEW025 14/11 Q1020 NOSIG
cycle: 5

Station Type Date Time Source
LCLK TAF 2022/12/04 06:30 UTC NOAA

TAF LCLK 040530Z 0406/0506 35007KT 9999 FEW035
BECMG 0408/0411 08010KT
BECMG 0416/0418 31006KT

Example: see airport list